createdAt,value
2022-09-15T00:01:16.763Z,96770.76
2022-09-15T00:03:46.653Z,96771.56
2022-09-15T00:06:15.272Z,96769.62
2022-09-15T00:08:43.029Z,96782.30
2022-09-15T00:11:18.361Z,96775.30
2022-09-15T00:13:46.835Z,96768.28
2022-09-15T00:16:15.795Z,96772.05
2022-09-15T00:18:45.429Z,96766.60
2022-09-15T00:21:18.510Z,96758.40
2022-09-15T00:23:47.465Z,96765.45
2022-09-15T00:26:19.794Z,96758.81
2022-09-15T00:28:48.006Z,96762.38
2022-09-15T00:31:20.497Z,96756.14
2022-09-15T00:33:51.021Z,96765.84
2022-09-15T00:36:20.251Z,96768.94
2022-09-15T00:38:48.333Z,96766.96
2022-09-15T00:41:20.497Z,96767.94
2022-09-15T00:43:58.952Z,96770.26
2022-09-15T00:46:38.008Z,96765.34
2022-09-15T00:49:20.266Z,96766.12
2022-09-15T00:52:02.519Z,96765.32
2022-09-15T00:54:41.179Z,96765.71
2022-09-15T00:57:23.446Z,96761.78
2022-09-15T00:59:53.111Z,96748.09
2022-09-15T01:02:33.799Z,96743.41
2022-09-15T01:05:07.125Z,96737.52
2022-09-15T01:07:43.012Z,96728.94
2022-09-15T01:10:39.337Z,96734.40
2022-09-15T01:13:11.124Z,96734.40
2022-09-15T01:16:04.913Z,96734.62
2022-09-15T01:18:43.733Z,96728.63
2022-09-15T01:21:34.845Z,96731.19
2022-09-15T01:24:46.636Z,96726.36
2022-09-15T01:27:43.002Z,96727.36
2022-09-15T01:30:11.475Z,96718.18
2022-09-15T01:33:14.180Z,96709.17
2022-09-15T01:36:19.928Z,96707.39
2022-09-15T01:39:02.017Z,96710.30
2022-09-15T01:42:01.903Z,96701.86
2022-09-15T01:44:34.616Z,96705.93
2022-09-15T01:47:06.697Z,96694.55
2022-09-15T01:50:03.369Z,96695.67
2022-09-15T01:52:32.238Z,96701.14
2022-09-15T01:55:08.467Z,96709.08
2022-09-15T01:57:35.976Z,96705.77
2022-09-15T02:00:04.923Z,96702.00
2022-09-15T02:02:37.976Z,96705.51
2022-09-15T02:05:24.773Z,96701.73
2022-09-15T02:08:06.278Z,96699.59
2022-09-15T02:10:44.868Z,96705.64
2022-09-15T02:13:39.590Z,96693.16
2022-09-15T02:16:17.307Z,96701.34
2022-09-15T02:19:10.544Z,96697.87
2022-09-15T02:21:58.941Z,96691.07
2022-09-15T02:24:37.461Z,96695.98
2022-09-15T02:27:13.450Z,96692.69
2022-09-15T02:29:43.585Z,96690.19
2022-09-15T02:32:14.598Z,96682.80
2022-09-15T02:34:46.377Z,96680.09
2022-09-15T02:37:15.980Z,96665.88
2022-09-15T02:39:49.591Z,96658.66
2022-09-15T02:42:38.064Z,96652.02
2022-09-15T02:45:16.575Z,96641.09
2022-09-15T02:47:57.744Z,96631.50
2022-09-15T02:50:28.508Z,96625.45
2022-09-15T02:52:56.406Z,96624.45
2022-09-15T02:55:26.679Z,96627.77
2022-09-15T02:57:56.611Z,96620.92
2022-09-15T03:00:26.044Z,96613.48
2022-09-15T03:02:55.062Z,96617.19
2022-09-15T03:05:27.923Z,96619.92
2022-09-15T03:07:56.732Z,96620.31
2022-09-15T03:10:25.295Z,96633.19
2022-09-15T03:12:54.952Z,96645.70
2022-09-15T03:15:25.663Z,96645.67
2022-09-15T03:17:54.456Z,96654.63
2022-09-15T03:20:29.806Z,96646.63
2022-09-15T03:22:57.462Z,96633.77
2022-09-15T03:25:26.410Z,96632.84
2022-09-15T03:27:53.911Z,96629.97
2022-09-15T03:30:21.348Z,96622.57
2022-09-15T03:32:49.116Z,96623.17
2022-09-15T03:35:16.780Z,96607.59
2022-09-15T03:37:45.256Z,96607.97
2022-09-15T03:40:13.715Z,96605.05
2022-09-15T03:42:41.291Z,96607.19
2022-09-15T03:45:09.721Z,96605.83
2022-09-15T03:47:37.340Z,96606.41
2022-09-15T03:50:06.513Z,96604.63
2022-09-15T03:52:34.285Z,96607.59
2022-09-15T03:55:01.787Z,96613.24
2022-09-15T03:57:29.424Z,96602.48
2022-09-15T03:59:57.042Z,96592.90
2022-09-15T04:02:24.982Z,96596.61
2022-09-15T04:04:52.606Z,96599.34
2022-09-15T04:07:20.374Z,96596.80
2022-09-15T04:09:48.034Z,96597.41
2022-09-15T04:12:15.915Z,96591.78
2022-09-15T04:14:43.612Z,96580.64
2022-09-15T04:17:11.333Z,96576.00
2022-09-15T04:19:38.734Z,96569.95
2022-09-15T04:22:06.634Z,96573.31
2022-09-15T04:24:34.170Z,96572.34
2022-09-15T04:27:01.684Z,96572.19
2022-09-15T04:29:29.613Z,96551.12
2022-09-15T04:31:57.595Z,96557.73
2022-09-15T04:34:25.305Z,96551.43
2022-09-15T04:36:52.728Z,96544.76
2022-09-15T04:39:20.121Z,96551.00
2022-09-15T04:41:47.507Z,96554.53
2022-09-15T04:44:14.876Z,96565.45
2022-09-15T04:46:42.292Z,96573.27
2022-09-15T04:49:09.954Z,96566.62
2022-09-15T04:51:38.062Z,96550.22
2022-09-15T04:54:05.988Z,96555.91
2022-09-15T04:56:33.474Z,96554.15
2022-09-15T04:59:03.893Z,96556.10
2022-09-15T05:01:33.928Z,96551.80
2022-09-15T05:04:05.891Z,96554.17
2022-09-15T05:06:35.173Z,96550.88
2022-09-15T05:09:10.027Z,96553.44
2022-09-15T05:11:35.390Z,96557.38
2022-09-15T05:14:02.770Z,96554.25
2022-09-15T05:16:31.514Z,96558.16
2022-09-15T05:19:02.686Z,96549.78
2022-09-15T05:21:30.666Z,96545.48
2022-09-15T05:23:58.391Z,96539.84
2022-09-15T05:26:28.649Z,96539.63
2022-09-15T05:28:57.263Z,96531.25
2022-09-15T05:31:33.154Z,96526.16
2022-09-15T05:34:03.904Z,96521.09
2022-09-15T05:36:32.607Z,96517.17
2022-09-15T05:39:01.186Z,96515.43
2022-09-15T05:41:30.032Z,96516.80
2022-09-15T05:43:58.656Z,96516.21
2022-09-15T05:46:28.612Z,96503.12
2022-09-15T05:48:58.522Z,96512.88
2022-09-15T05:51:27.044Z,96508.77
2022-09-15T05:53:54.771Z,96516.02
2022-09-15T05:56:22.419Z,96511.69
2022-09-15T05:58:49.952Z,96517.97
2022-09-15T06:01:20.739Z,96521.48
2022-09-15T06:03:48.831Z,96507.61
2022-09-15T06:06:17.315Z,96510.33
2022-09-15T06:08:49.440Z,96504.48
2022-09-15T06:11:24.257Z,96505.83
2022-09-15T06:13:52.234Z,96502.31
2022-09-15T06:16:23.148Z,96518.34
2022-09-15T06:18:52.838Z,96510.48
2022-09-15T06:21:24.999Z,96505.03
2022-09-15T06:23:56.103Z,96508.50
2022-09-15T06:26:24.010Z,96502.43
2022-09-15T06:28:59.862Z,96504.57
2022-09-15T06:31:31.023Z,96502.23
2022-09-15T06:33:59.214Z,96499.86
2022-09-15T06:36:29.616Z,96509.27
2022-09-15T06:38:58.084Z,96516.52
2022-09-15T06:41:31.112Z,96517.71
2022-09-15T06:43:57.752Z,96508.91
2022-09-15T06:46:28.122Z,96530.05
2022-09-15T06:48:55.877Z,96521.84
2022-09-15T06:51:27.527Z,96527.72
2022-09-15T06:53:55.401Z,96534.16
2022-09-15T06:56:23.979Z,96543.16
2022-09-15T06:58:51.668Z,96553.89
2022-09-15T07:01:30.780Z,96565.47
2022-09-15T07:04:00.974Z,96566.46
2022-09-15T07:06:31.550Z,96573.68
2022-09-15T07:09:01.203Z,96586.78
2022-09-15T07:11:29.578Z,96606.14
2022-09-15T07:13:58.366Z,96610.44
2022-09-15T07:16:26.368Z,96622.57
2022-09-15T07:18:59.761Z,96621.02
2022-09-15T07:21:27.261Z,96610.62
2022-09-15T07:23:57.425Z,96623.34
2022-09-15T07:26:28.979Z,96623.53
2022-09-15T07:29:03.510Z,96626.09
2022-09-15T07:31:34.063Z,96642.33
2022-09-15T07:34:02.407Z,96660.72
2022-09-15T07:36:31.375Z,96658.77
2022-09-15T07:38:59.084Z,96662.68
2022-09-15T07:41:29.799Z,96666.59
2022-09-15T07:43:59.602Z,96662.08
2022-09-15T07:46:31.394Z,96662.30
2022-09-15T07:49:00.236Z,96668.55
2022-09-15T07:51:27.435Z,96669.52
2022-09-15T07:53:55.363Z,96662.67
2022-09-15T07:56:23.359Z,96664.44
2022-09-15T07:58:51.549Z,96662.27
2022-09-15T08:01:21.796Z,96672.08
2022-09-15T08:03:51.703Z,96678.34
2022-09-15T08:06:23.440Z,96685.56
2022-09-15T08:08:55.081Z,96687.91
2022-09-15T08:11:21.459Z,96676.77
2022-09-15T08:13:51.940Z,96680.88
2022-09-15T08:16:23.167Z,96689.66
2022-09-15T08:18:53.496Z,96699.66
2022-09-15T08:21:22.952Z,96697.10
2022-09-15T08:23:57.189Z,96709.25
2022-09-15T08:26:27.525Z,96701.59
2022-09-15T08:28:55.146Z,96701.78
2022-09-15T08:31:24.651Z,96704.14
2022-09-15T08:33:55.361Z,96709.63
2022-09-15T08:36:25.284Z,96705.89
2022-09-15T08:38:53.190Z,96708.06
2022-09-15T08:41:28.633Z,96706.70
2022-09-15T08:44:32.112Z,96714.92
2022-09-15T08:47:13.958Z,96716.07
2022-09-15T08:50:09.906Z,96704.73
2022-09-15T08:52:55.171Z,96704.92
2022-09-15T08:55:41.225Z,96702.18
2022-09-15T08:58:32.426Z,96696.48
2022-09-15T09:01:17.543Z,96701.17
2022-09-15T09:03:59.936Z,96709.17
2022-09-15T09:06:45.222Z,96716.98
2022-09-15T09:09:47.940Z,96708.41
2022-09-15T09:12:33.297Z,96712.48
2022-09-15T09:15:41.047Z,96719.33
2022-09-15T09:18:37.820Z,96723.63
2022-09-15T09:21:23.069Z,96724.03
2022-09-15T09:24:14.345Z,96733.81
2022-09-15T09:26:42.844Z,96740.30
2022-09-15T09:29:19.604Z,96743.83
2022-09-15T09:31:52.859Z,96746.39
2022-09-15T09:34:50.071Z,96752.06
2022-09-15T09:37:17.743Z,96753.61
2022-09-15T09:39:46.615Z,96746.94
2022-09-15T09:42:18.437Z,96752.42
2022-09-15T09:44:47.249Z,96753.01
2022-09-15T09:47:15.739Z,96754.37
2022-09-15T09:49:48.599Z,96750.25
2022-09-15T09:52:22.855Z,96745.72
2022-09-15T09:54:56.040Z,96745.11
2022-09-15T09:57:29.338Z,96739.61
2022-09-15T09:59:57.996Z,96736.42
2022-09-15T10:02:28.897Z,96741.66
2022-09-15T10:05:08.171Z,96743.77
2022-09-15T10:07:43.351Z,96739.79
2022-09-15T10:10:24.378Z,96738.96
2022-09-15T10:12:56.862Z,96741.08
2022-09-15T10:15:28.181Z,96744.58
2022-09-15T10:17:56.987Z,96739.09
2022-09-15T10:20:32.893Z,96733.21
2022-09-15T10:23:08.196Z,96731.78
2022-09-15T10:25:58.631Z,96723.94
2022-09-15T10:28:21.123Z,96723.14
2022-09-15T10:31:10.397Z,96718.00
2022-09-15T10:33:42.236Z,96721.33
2022-09-15T10:36:29.488Z,96723.06
2022-09-15T10:39:28.616Z,96726.56
2022-09-15T10:42:19.696Z,96736.76
2022-09-15T10:45:04.658Z,96737.15
2022-09-15T10:47:37.865Z,96745.94
2022-09-15T10:50:22.990Z,96744.95
2022-09-15T10:53:17.150Z,96744.33
2022-09-15T10:55:52.596Z,96729.78
2022-09-15T10:58:58.194Z,96728.33
2022-09-15T11:01:34.150Z,96732.79
2022-09-15T11:04:34.842Z,96726.84
2022-09-15T11:07:33.932Z,96734.29
2022-09-15T11:10:29.932Z,96733.57
2022-09-15T11:13:26.842Z,96724.45
2022-09-15T11:16:08.386Z,96718.63
2022-09-15T11:18:44.514Z,96720.68
2022-09-15T11:21:45.769Z,96719.77
2022-09-15T11:24:36.950Z,96707.86
2022-09-15T11:27:25.055Z,96699.61
2022-09-15T11:30:07.483Z,96705.59
2022-09-15T11:32:59.354Z,96701.06
2022-09-15T11:35:46.428Z,96697.50
2022-09-15T11:38:49.100Z,96688.94
2022-09-15T11:41:44.676Z,96687.95
2022-09-15T11:44:26.916Z,96686.37
2022-09-15T11:47:27.698Z,96677.14
2022-09-15T11:50:09.553Z,96674.74
2022-09-15T11:53:09.464Z,96673.45
2022-09-15T11:56:00.082Z,96685.83
2022-09-15T11:58:47.491Z,96678.42
2022-09-15T12:01:23.396Z,96666.28
2022-09-15T12:04:04.537Z,96665.90
2022-09-15T12:06:52.100Z,96672.19
2022-09-15T12:09:21.046Z,96666.55
2022-09-15T12:11:54.148Z,96664.83
2022-09-15T12:14:43.893Z,96662.67
2022-09-15T12:17:41.306Z,96655.23
2022-09-15T12:20:46.253Z,96669.95
2022-09-15T12:23:28.513Z,96677.57
2022-09-15T12:26:07.781Z,96671.06
2022-09-15T12:28:43.308Z,96669.76
2022-09-15T12:31:27.554Z,96672.94
2022-09-15T12:34:35.738Z,96665.77
2022-09-15T12:37:17.804Z,96668.16
2022-09-15T12:39:47.492Z,96674.12
2022-09-15T12:42:27.609Z,96670.34
2022-09-15T12:45:26.843Z,96670.48
2022-09-15T12:48:04.812Z,96671.62
2022-09-15T12:50:46.891Z,96660.53
2022-09-15T12:53:31.144Z,96652.91
2022-09-15T12:56:03.172Z,96650.95
2022-09-15T12:58:36.313Z,96657.70
2022-09-15T13:01:28.141Z,96651.74
2022-09-15T13:04:07.348Z,96663.61
2022-09-15T13:06:35.284Z,96661.21
2022-09-15T13:09:15.720Z,96650.16
2022-09-15T13:11:47.025Z,96653.09
2022-09-15T13:14:37.618Z,96646.09
2022-09-15T13:17:19.152Z,96639.95
2022-09-15T13:19:53.082Z,96639.52
2022-09-15T13:22:29.645Z,96640.28
2022-09-15T13:25:15.180Z,96643.05
2022-09-15T13:27:56.427Z,96634.06
2022-09-15T13:30:53.325Z,96633.20
2022-09-15T13:39:33.050Z,96630.36
2022-09-15T13:42:31.016Z,96622.56
2022-09-15T13:45:29.104Z,96628.33
2022-09-15T13:48:08.079Z,96621.58
2022-09-15T13:50:59.749Z,96617.95
2022-09-15T13:53:36.778Z,96600.16
2022-09-15T13:56:09.507Z,96610.53
2022-09-15T13:59:01.799Z,96607.27
2022-09-15T14:01:11.711Z,96597.60
2022-09-15T14:03:50.396Z,96597.16
2022-09-15T14:06:26.645Z,96605.20
2022-09-15T14:08:58.454Z,96610.35
2022-09-15T14:11:33.713Z,96608.95
2022-09-15T14:14:02.537Z,96604.03
2022-09-15T14:16:34.701Z,96603.77
2022-09-15T14:19:24.446Z,96591.83
2022-09-15T14:21:58.320Z,96592.88
2022-09-15T14:24:29.777Z,96607.89
2022-09-15T14:27:02.954Z,96593.55
2022-09-15T14:29:30.547Z,96581.81
2022-09-15T14:32:01.361Z,96592.16
2022-09-15T14:34:33.057Z,96580.41
2022-09-15T14:37:24.836Z,96577.28
2022-09-15T14:39:58.302Z,96578.50
2022-09-15T14:42:37.115Z,96578.66
2022-09-15T14:47:44.794Z,96564.03
2022-09-15T14:50:21.711Z,96550.84
2022-09-15T14:52:54.335Z,96546.03
2022-09-15T14:55:38.924Z,96540.59
2022-09-15T14:58:17.222Z,96537.22
2022-09-15T15:00:53.966Z,96542.50
2022-09-15T15:03:27.101Z,96524.80
2022-09-15T15:06:02.454Z,96534.73
2022-09-15T15:08:39.503Z,96529.38
2022-09-15T15:11:10.263Z,96527.64
2022-09-15T15:13:41.993Z,96527.63
2022-09-15T15:16:26.373Z,96529.70
2022-09-15T15:18:58.592Z,96529.89
2022-09-15T15:21:44.612Z,96524.37
2022-09-15T15:24:22.126Z,96526.44
2022-09-15T15:26:50.780Z,96526.78
2022-09-15T15:29:43.580Z,96524.55
2022-09-15T15:32:24.598Z,96524.02
2022-09-15T15:35:01.408Z,96521.42
2022-09-15T15:37:32.164Z,96522.39
2022-09-15T15:40:07.419Z,96523.16
2022-09-15T15:42:35.248Z,96523.92
2022-09-15T15:45:23.103Z,96509.95
2022-09-15T15:47:51.061Z,96526.06
2022-09-15T15:50:25.714Z,96531.00
2022-09-15T15:52:54.357Z,96530.82
2022-09-15T15:55:26.214Z,96521.91
2022-09-15T15:57:55.544Z,96537.16
2022-09-15T16:00:31.009Z,96534.14
2022-09-15T16:02:58.825Z,96529.12
2022-09-15T16:05:29.112Z,96531.95
2022-09-15T16:08:00.209Z,96534.11
2022-09-15T16:10:32.518Z,96539.02
2022-09-15T16:13:00.077Z,96531.59
2022-09-15T16:15:27.860Z,96526.17
2022-09-15T16:17:55.453Z,96531.16
2022-09-15T16:20:24.668Z,96527.08
2022-09-15T16:22:52.582Z,96526.98
2022-09-15T16:25:36.736Z,96530.24
2022-09-15T16:28:04.564Z,96517.30
2022-09-15T16:30:33.275Z,96512.69
2022-09-15T16:33:01.524Z,96501.45
2022-09-15T16:35:54.640Z,96509.28
2022-09-15T16:38:25.367Z,96512.20
2022-09-15T16:40:53.495Z,96514.91
2022-09-15T16:43:22.434Z,96510.89
2022-09-15T16:45:51.583Z,96514.98
2022-09-15T16:48:19.586Z,96523.36
2022-09-15T16:51:16.875Z,96517.45
2022-09-15T16:53:22.082Z,96513.26
2022-09-15T16:55:52.694Z,96518.11
2022-09-15T16:58:21.616Z,96516.23
2022-09-15T17:00:52.389Z,96515.73
2022-09-15T17:03:24.982Z,96511.66
2022-09-15T17:05:55.782Z,96520.52
2022-09-15T17:08:28.727Z,96508.91
2022-09-15T17:11:02.441Z,96503.75
2022-09-15T17:13:31.812Z,96511.41
2022-09-15T17:16:01.389Z,96510.45
2022-09-15T17:18:30.117Z,96507.88
2022-09-15T17:20:58.539Z,96511.00
2022-09-15T17:23:34.222Z,96514.28
2022-09-15T17:26:06.148Z,96517.84
2022-09-15T17:28:36.157Z,96515.30
2022-09-15T17:31:08.354Z,96513.76
2022-09-15T17:33:35.987Z,96516.91
2022-09-15T17:36:04.529Z,96511.11
2022-09-15T17:38:32.286Z,96514.52
2022-09-15T17:40:59.943Z,96512.41
2022-09-15T17:43:30.697Z,96514.27
2022-09-15T17:45:58.586Z,96520.22
2022-09-15T17:48:26.143Z,96510.52
2022-09-15T17:50:53.893Z,96498.60
2022-09-15T17:53:26.176Z,96492.63
2022-09-15T17:55:55.591Z,96496.07
2022-09-15T17:58:26.301Z,96498.74
2022-09-15T18:00:54.206Z,96498.66
2022-09-15T18:03:33.692Z,96500.47
2022-09-15T18:06:06.015Z,96508.19
2022-09-15T18:08:37.019Z,96507.42
2022-09-15T18:11:06.595Z,96503.09
2022-09-15T18:13:34.628Z,96498.97
2022-09-15T18:16:09.473Z,96497.98
2022-09-15T18:18:38.387Z,96497.19
2022-09-15T18:21:13.694Z,96500.29
2022-09-15T18:23:41.889Z,96495.17
2022-09-15T18:26:09.508Z,96491.17
2022-09-15T18:28:37.304Z,96496.85
2022-09-15T18:31:05.414Z,96494.87
2022-09-15T18:33:33.249Z,96482.15
2022-09-15T18:36:00.833Z,96476.05
2022-09-15T18:38:28.636Z,96477.42
2022-09-15T18:40:57.170Z,96465.27
2022-09-15T18:43:27.038Z,96456.84
2022-09-15T18:45:59.423Z,96456.67
2022-09-15T18:48:27.902Z,96452.77
2022-09-15T18:50:55.862Z,96466.53
2022-09-15T18:53:24.265Z,96460.95
2022-09-15T18:55:52.024Z,96464.52
2022-09-15T18:58:19.799Z,96458.10
2022-09-15T19:00:48.451Z,96451.88
2022-09-15T19:03:15.928Z,96451.31
2022-09-15T19:05:45.200Z,96438.64
2022-09-15T19:08:13.024Z,96459.11
2022-09-15T19:10:42.402Z,96465.28
2022-09-15T19:13:15.172Z,96462.23
2022-09-15T19:15:43.367Z,96461.48
2022-09-15T19:18:11.484Z,96444.66
2022-09-15T19:20:39.842Z,96463.36
2022-09-15T19:23:07.459Z,96472.58
2022-09-15T19:25:35.318Z,96475.16
2022-09-15T19:28:03.194Z,96471.98
2022-09-15T19:30:30.661Z,96470.61
2022-09-15T19:32:58.033Z,96469.80
2022-09-15T19:35:25.684Z,96461.52
2022-09-15T19:37:53.415Z,96452.86
2022-09-15T19:40:23.154Z,96456.17
2022-09-15T19:42:50.771Z,96452.64
2022-09-15T19:45:18.763Z,96458.36
2022-09-15T19:47:46.289Z,96455.25
2022-09-15T19:50:13.906Z,96449.97
2022-09-15T19:52:41.686Z,96456.48
2022-09-15T19:55:11.571Z,96461.00
2022-09-15T19:57:41.239Z,96456.31
2022-09-15T20:00:12.369Z,96456.95
2022-09-15T20:02:40.190Z,96456.03
2022-09-15T20:05:08.675Z,96454.09
2022-09-15T20:07:37.160Z,96450.81
2022-09-15T20:10:05.949Z,96452.78
2022-09-15T20:12:33.675Z,96450.81
2022-09-15T20:15:01.303Z,96450.42
2022-09-15T20:17:28.951Z,96440.64
2022-09-15T20:19:56.509Z,96436.13
2022-09-15T20:22:24.336Z,96430.46
2022-09-15T20:24:51.671Z,96436.13
2022-09-15T20:27:19.282Z,96435.74
2022-09-15T20:29:47.006Z,96434.55
2022-09-15T20:32:14.789Z,96436.52
2022-09-15T20:34:42.491Z,96434.58
2022-09-15T20:37:10.142Z,96428.91
2022-09-15T20:39:37.829Z,96425.19
2022-09-15T20:42:05.539Z,96414.44
2022-09-15T20:44:33.043Z,96411.73
2022-09-15T20:47:00.566Z,96419.05
2022-09-15T20:49:28.183Z,96408.06
2022-09-15T20:51:55.532Z,96407.89
2022-09-15T20:54:22.825Z,96406.30
2022-09-15T20:56:50.256Z,96410.03
2022-09-15T20:59:17.786Z,96414.78
2022-09-15T21:01:46.237Z,96405.98
2022-09-15T21:04:14.831Z,96410.52
2022-09-15T21:06:42.453Z,96412.42
2022-09-15T21:09:10.240Z,96414.37
2022-09-15T21:11:38.848Z,96418.27
2022-09-15T21:14:06.229Z,96416.09
2022-09-15T21:16:34.286Z,96419.19
2022-09-15T21:19:01.898Z,96413.11
2022-09-15T21:21:32.549Z,96413.84
2022-09-15T21:24:06.934Z,96411.84
2022-09-15T21:26:57.067Z,96408.11
2022-09-15T21:29:25.880Z,96405.43
2022-09-15T21:31:55.332Z,96406.06
2022-09-15T21:34:23.616Z,96408.28
2022-09-15T21:36:52.955Z,96415.73
2022-09-15T21:39:20.910Z,96416.33
2022-09-15T21:41:49.258Z,96418.30
2022-09-15T21:44:17.047Z,96416.16
2022-09-15T21:46:46.734Z,96425.80
2022-09-15T21:49:16.804Z,96425.23
2022-09-15T21:51:44.430Z,96417.63
2022-09-15T21:54:11.974Z,96417.89
2022-09-15T21:56:39.760Z,96417.33
2022-09-15T21:59:10.173Z,96420.84
2022-09-15T22:01:39.272Z,96438.68
2022-09-15T22:04:10.118Z,96452.82
2022-09-15T22:06:40.885Z,96454.19
2022-09-15T22:09:14.958Z,96452.97
2022-09-15T22:11:42.691Z,96461.53
2022-09-15T22:14:11.417Z,96458.34
2022-09-15T22:16:41.661Z,96459.30
2022-09-15T22:19:11.424Z,96459.48
2022-09-15T22:21:41.260Z,96465.33
2022-09-15T22:24:12.285Z,96464.52
2022-09-15T22:26:42.006Z,96457.81
2022-09-15T22:29:09.911Z,96459.57
2022-09-15T22:31:37.892Z,96462.91
2022-09-15T22:34:05.534Z,96464.88
2022-09-15T22:36:33.802Z,96458.23
2022-09-15T22:39:04.544Z,96462.80
2022-09-15T22:41:36.250Z,96468.91
2022-09-15T22:44:05.512Z,96470.91
2022-09-15T22:46:33.252Z,96478.00
2022-09-15T22:49:01.154Z,96474.16
2022-09-15T22:51:29.419Z,96474.00
2022-09-15T22:53:57.848Z,96472.66
2022-09-15T22:56:26.423Z,96461.11
2022-09-15T22:58:56.273Z,96458.98
2022-09-15T23:01:28.088Z,96459.58
2022-09-15T23:03:59.820Z,96458.20
2022-09-15T23:06:33.361Z,96446.45
2022-09-15T23:09:06.075Z,96438.97
2022-09-15T23:11:35.381Z,96434.83
2022-09-15T23:14:03.187Z,96439.91
2022-09-15T23:16:31.691Z,96436.59
2022-09-15T23:18:59.788Z,96436.02
2022-09-15T23:21:27.994Z,96434.28
2022-09-15T23:23:56.014Z,96433.53
2022-09-15T23:26:24.764Z,96428.28
2022-09-15T23:28:53.085Z,96429.91
2022-09-15T23:31:21.496Z,96433.69
2022-09-15T23:33:49.429Z,96431.75
2022-09-15T23:36:21.376Z,96429.62
2022-09-15T23:38:49.637Z,96428.27
2022-09-15T23:41:18.358Z,96425.97
2022-09-15T23:43:47.141Z,96434.18
2022-09-15T23:46:16.808Z,96425.98
2022-09-15T23:48:44.990Z,96424.03
2022-09-15T23:51:12.936Z,96428.53
2022-09-15T23:53:40.610Z,96427.53
2022-09-15T23:56:08.339Z,96418.34
2022-09-15T23:58:36.206Z,96418.70
